sensor_id;sensor_type;location;lat;lon;timestamp;P1;durP1;ratioP1;P2;durP2;ratioP2
63693;SDS011;49839;51.798;10.954;2023-06-10T00:02:10;7.85;;;3.40;;
63693;SDS011;49839;51.798;10.954;2023-06-10T00:04:38;7.75;;;2.85;;
63693;SDS011;49839;51.798;10.954;2023-06-10T00:07:06;7.85;;;3.10;;
63693;SDS011;49839;51.798;10.954;2023-06-10T00:09:34;8.17;;;2.77;;
63693;SDS011;49839;51.798;10.954;2023-06-10T00:12:03;9.07;;;3.03;;
63693;SDS011;49839;51.798;10.954;2023-06-10T00:14:35;6.93;;;3.00;;
63693;SDS011;49839;51.798;10.954;2023-06-10T00:17:04;10.15;;;2.95;;
63693;SDS011;49839;51.798;10.954;2023-06-10T00:19:35;6.63;;;3.00;;
63693;SDS011;49839;51.798;10.954;2023-06-10T00:22:03;6.97;;;2.88;;
63693;SDS011;49839;51.798;10.954;2023-06-10T00:24:31;8.45;;;2.80;;
63693;SDS011;49839;51.798;10.954;2023-06-10T00:26:59;7.40;;;2.60;;
63693;SDS011;49839;51.798;10.954;2023-06-10T00:29:26;8.35;;;3.33;;
63693;SDS011;49839;51.798;10.954;2023-06-10T00:31:55;7.30;;;2.63;;
63693;SDS011;49839;51.798;10.954;2023-06-10T00:34:24;9.25;;;3.03;;
63693;SDS011;49839;51.798;10.954;2023-06-10T00:36:52;7.65;;;2.72;;
63693;SDS011;49839;51.798;10.954;2023-06-10T00:39:20;7.13;;;2.50;;
63693;SDS011;49839;51.798;10.954;2023-06-10T00:41:47;7.85;;;3.10;;
63693;SDS011;49839;51.798;10.954;2023-06-10T00:44:15;8.10;;;3.42;;
63693;SDS011;49839;51.798;10.954;2023-06-10T00:46:43;10.35;;;3.17;;
63693;SDS011;49839;51.798;10.954;2023-06-10T00:49:12;9.40;;;3.60;;
63693;SDS011;49839;51.798;10.954;2023-06-10T00:51:40;8.27;;;3.10;;
63693;SDS011;49839;51.798;10.954;2023-06-10T00:54:08;7.38;;;2.90;;
63693;SDS011;49839;51.798;10.954;2023-06-10T00:56:39;7.63;;;3.03;;
63693;SDS011;49839;51.798;10.954;2023-06-10T01:01:36;7.28;;;2.92;;
63693;SDS011;49839;51.798;10.954;2023-06-10T01:04:05;6.75;;;2.95;;
63693;SDS011;49839;51.798;10.954;2023-06-10T01:06:41;6.93;;;3.25;;
63693;SDS011;49839;51.798;10.954;2023-06-10T01:09:18;7.73;;;3.10;;
63693;SDS011;49839;51.798;10.954;2023-06-10T01:11:52;9.02;;;3.20;;
63693;SDS011;49839;51.798;10.954;2023-06-10T01:14:26;6.80;;;3.03;;
63693;SDS011;49839;51.798;10.954;2023-06-10T01:16:54;7.90;;;2.92;;
63693;SDS011;49839;51.798;10.954;2023-06-10T01:19:23;8.82;;;3.33;;
63693;SDS011;49839;51.798;10.954;2023-06-10T01:21:52;7.78;;;3.10;;
63693;SDS011;49839;51.798;10.954;2023-06-10T01:24:21;7.75;;;2.75;;
63693;SDS011;49839;51.798;10.954;2023-06-10T01:26:49;7.80;;;2.90;;
63693;SDS011;49839;51.798;10.954;2023-06-10T01:29:20;7.75;;;2.95;;
63693;SDS011;49839;51.798;10.954;2023-06-10T01:31:55;8.75;;;3.25;;
63693;SDS011;49839;51.798;10.954;2023-06-10T01:34:29;6.32;;;3.00;;
63693;SDS011;49839;51.798;10.954;2023-06-10T01:37:01;6.45;;;3.00;;
63693;SDS011;49839;51.798;10.954;2023-06-10T01:39:31;7.88;;;3.10;;
63693;SDS011;49839;51.798;10.954;2023-06-10T01:41:59;6.83;;;3.00;;
63693;SDS011;49839;51.798;10.954;2023-06-10T01:44:28;6.53;;;2.95;;
63693;SDS011;49839;51.798;10.954;2023-06-10T01:46:56;13.30;;;3.35;;
63693;SDS011;49839;51.798;10.954;2023-06-10T01:49:24;7.20;;;3.50;;
63693;SDS011;49839;51.798;10.954;2023-06-10T01:51:52;5.90;;;3.13;;
63693;SDS011;49839;51.798;10.954;2023-06-10T01:54:21;9.85;;;3.28;;
63693;SDS011;49839;51.798;10.954;2023-06-10T01:56:49;7.78;;;3.30;;
63693;SDS011;49839;51.798;10.954;2023-06-10T01:59:16;8.50;;;3.70;;
63693;SDS011;49839;51.798;10.954;2023-06-10T02:01:44;8.73;;;3.47;;
63693;SDS011;49839;51.798;10.954;2023-06-10T02:04:11;5.43;;;2.83;;
63693;SDS011;49839;51.798;10.954;2023-06-10T02:06:39;9.57;;;3.35;;
63693;SDS011;49839;51.798;10.954;2023-06-10T02:09:07;7.65;;;3.10;;
63693;SDS011;49839;51.798;10.954;2023-06-10T02:11:37;8.48;;;3.13;;
63693;SDS011;49839;51.798;10.954;2023-06-10T02:14:04;7.75;;;2.95;;
63693;SDS011;49839;51.798;10.954;2023-06-10T02:16:32;7.65;;;3.70;;
63693;SDS011;49839;51.798;10.954;2023-06-10T02:19:00;7.75;;;3.17;;
63693;SDS011;49839;51.798;10.954;2023-06-10T02:21:32;9.18;;;3.53;;
63693;SDS011;49839;51.798;10.954;2023-06-10T02:24:00;9.55;;;3.22;;
63693;SDS011;49839;51.798;10.954;2023-06-10T02:26:28;9.70;;;3.10;;
63693;SDS011;49839;51.798;10.954;2023-06-10T02:28:57;8.10;;;2.85;;
63693;SDS011;49839;51.798;10.954;2023-06-10T02:31:25;7.38;;;3.50;;
63693;SDS011;49839;51.798;10.954;2023-06-10T02:33:52;11.88;;;3.40;;
63693;SDS011;49839;51.798;10.954;2023-06-10T02:36:20;10.68;;;3.35;;
63693;SDS011;49839;51.798;10.954;2023-06-10T02:38:50;9.00;;;3.45;;
63693;SDS011;49839;51.798;10.954;2023-06-10T02:41:18;8.23;;;3.60;;
63693;SDS011;49839;51.798;10.954;2023-06-10T02:43:45;7.63;;;2.80;;
63693;SDS011;49839;51.798;10.954;2023-06-10T02:46:14;10.23;;;2.92;;
63693;SDS011;49839;51.798;10.954;2023-06-10T02:48:42;10.00;;;3.25;;
63693;SDS011;49839;51.798;10.954;2023-06-10T02:51:10;5.70;;;3.00;;
63693;SDS011;49839;51.798;10.954;2023-06-10T02:53:38;9.30;;;3.17;;
63693;SDS011;49839;51.798;10.954;2023-06-10T02:56:05;6.60;;;3.15;;
63693;SDS011;49839;51.798;10.954;2023-06-10T02:58:33;9.90;;;3.60;;
63693;SDS011;49839;51.798;10.954;2023-06-10T03:01:01;9.55;;;3.42;;
63693;SDS011;49839;51.798;10.954;2023-06-10T03:03:31;7.07;;;3.25;;
63693;SDS011;49839;51.798;10.954;2023-06-10T03:06:00;7.40;;;3.22;;
63693;SDS011;49839;51.798;10.954;2023-06-10T03:08:30;9.27;;;3.90;;
63693;SDS011;49839;51.798;10.954;2023-06-10T03:10:57;9.45;;;3.22;;
63693;SDS011;49839;51.798;10.954;2023-06-10T03:13:25;7.97;;;3.53;;
63693;SDS011;49839;51.798;10.954;2023-06-10T03:15:53;7.85;;;3.75;;
63693;SDS011;49839;51.798;10.954;2023-06-10T03:18:20;9.50;;;3.90;;
63693;SDS011;49839;51.798;10.954;2023-06-10T03:20:50;9.05;;;3.40;;
63693;SDS011;49839;51.798;10.954;2023-06-10T03:23:18;8.20;;;3.92;;
63693;SDS011;49839;51.798;10.954;2023-06-10T03:25:47;7.78;;;3.40;;
63693;SDS011;49839;51.798;10.954;2023-06-10T03:28:14;8.88;;;3.75;;
63693;SDS011;49839;51.798;10.954;2023-06-10T03:30:42;10.50;;;4.18;;
63693;SDS011;49839;51.798;10.954;2023-06-10T03:33:10;9.40;;;3.70;;
63693;SDS011;49839;51.798;10.954;2023-06-10T03:35:38;11.05;;;3.92;;
63693;SDS011;49839;51.798;10.954;2023-06-10T03:38:07;10.98;;;4.00;;
63693;SDS011;49839;51.798;10.954;2023-06-10T03:40:35;11.57;;;4.00;;
63693;SDS011;49839;51.798;10.954;2023-06-10T03:43:03;7.47;;;3.75;;
63693;SDS011;49839;51.798;10.954;2023-06-10T03:45:31;9.73;;;3.90;;
63693;SDS011;49839;51.798;10.954;2023-06-10T03:47:59;9.88;;;3.95;;
63693;SDS011;49839;51.798;10.954;2023-06-10T03:50:29;7.80;;;3.72;;
63693;SDS011;49839;51.798;10.954;2023-06-10T03:52:57;8.40;;;3.72;;
63693;SDS011;49839;51.798;10.954;2023-06-10T03:55:26;8.38;;;3.70;;
63693;SDS011;49839;51.798;10.954;2023-06-10T03:57:54;10.02;;;3.70;;
63693;SDS011;49839;51.798;10.954;2023-06-10T04:00:22;9.32;;;3.60;;
63693;SDS011;49839;51.798;10.954;2023-06-10T04:02:49;13.95;;;3.80;;
63693;SDS011;49839;51.798;10.954;2023-06-10T04:05:19;9.63;;;4.10;;
63693;SDS011;49839;51.798;10.954;2023-06-10T04:07:48;9.63;;;3.58;;
63693;SDS011;49839;51.798;10.954;2023-06-10T04:10:16;7.32;;;3.30;;
63693;SDS011;49839;51.798;10.954;2023-06-10T04:12:46;7.72;;;3.70;;
63693;SDS011;49839;51.798;10.954;2023-06-10T04:15:14;10.32;;;4.22;;
63693;SDS011;49839;51.798;10.954;2023-06-10T04:17:42;9.98;;;3.67;;
63693;SDS011;49839;51.798;10.954;2023-06-10T04:20:10;8.02;;;3.55;;
63693;SDS011;49839;51.798;10.954;2023-06-10T04:22:38;7.55;;;3.47;;
63693;SDS011;49839;51.798;10.954;2023-06-10T04:25:06;8.05;;;3.38;;
63693;SDS011;49839;51.798;10.954;2023-06-10T04:27:34;8.63;;;3.10;;
63693;SDS011;49839;51.798;10.954;2023-06-10T04:30:04;9.82;;;3.72;;
63693;SDS011;49839;51.798;10.954;2023-06-10T04:32:33;7.65;;;3.00;;
63693;SDS011;49839;51.798;10.954;2023-06-10T04:35:00;9.27;;;3.80;;
63693;SDS011;49839;51.798;10.954;2023-06-10T04:37:28;8.90;;;3.80;;
63693;SDS011;49839;51.798;10.954;2023-06-10T04:39:56;9.05;;;3.50;;
63693;SDS011;49839;51.798;10.954;2023-06-10T04:42:25;10.82;;;3.80;;
63693;SDS011;49839;51.798;10.954;2023-06-10T04:44:52;9.18;;;4.38;;
63693;SDS011;49839;51.798;10.954;2023-06-10T04:47:21;9.52;;;3.92;;
63693;SDS011;49839;51.798;10.954;2023-06-10T04:49:49;8.00;;;4.05;;
63693;SDS011;49839;51.798;10.954;2023-06-10T04:52:17;7.47;;;3.95;;
63693;SDS011;49839;51.798;10.954;2023-06-10T04:54:46;9.75;;;4.28;;
63693;SDS011;49839;51.798;10.954;2023-06-10T04:57:14;9.30;;;4.20;;
63693;SDS011;49839;51.798;10.954;2023-06-10T04:59:42;7.80;;;3.70;;
63693;SDS011;49839;51.798;10.954;2023-06-10T05:02:10;7.40;;;3.83;;
63693;SDS011;49839;51.798;10.954;2023-06-10T05:04:39;8.95;;;3.67;;
63693;SDS011;49839;51.798;10.954;2023-06-10T05:07:07;10.75;;;4.40;;
63693;SDS011;49839;51.798;10.954;2023-06-10T05:09:37;10.52;;;4.10;;
63693;SDS011;49839;51.798;10.954;2023-06-10T05:12:05;9.63;;;4.05;;
63693;SDS011;49839;51.798;10.954;2023-06-10T05:14:34;9.07;;;4.10;;
63693;SDS011;49839;51.798;10.954;2023-06-10T05:17:01;8.07;;;3.78;;
63693;SDS011;49839;51.798;10.954;2023-06-10T05:19:31;7.88;;;3.80;;
63693;SDS011;49839;51.798;10.954;2023-06-10T05:22:01;7.93;;;3.42;;
63693;SDS011;49839;51.798;10.954;2023-06-10T05:24:29;8.20;;;3.63;;
63693;SDS011;49839;51.798;10.954;2023-06-10T05:26:56;11.15;;;4.35;;
63693;SDS011;49839;51.798;10.954;2023-06-10T05:29:24;7.68;;;3.60;;
63693;SDS011;49839;51.798;10.954;2023-06-10T05:31:52;11.40;;;3.83;;
63693;SDS011;49839;51.798;10.954;2023-06-10T05:34:20;8.95;;;3.60;;
63693;SDS011;49839;51.798;10.954;2023-06-10T05:36:47;10.70;;;3.78;;
63693;SDS011;49839;51.798;10.954;2023-06-10T05:39:16;7.28;;;3.53;;
63693;SDS011;49839;51.798;10.954;2023-06-10T05:41:45;10.60;;;3.70;;
63693;SDS011;49839;51.798;10.954;2023-06-10T05:44:13;7.70;;;3.72;;
63693;SDS011;49839;51.798;10.954;2023-06-10T05:46:41;8.68;;;3.85;;
63693;SDS011;49839;51.798;10.954;2023-06-10T05:49:09;8.95;;;3.50;;
63693;SDS011;49839;51.798;10.954;2023-06-10T05:51:37;9.20;;;3.58;;
63693;SDS011;49839;51.798;10.954;2023-06-10T05:54:05;9.40;;;3.70;;
63693;SDS011;49839;51.798;10.954;2023-06-10T05:56:34;9.43;;;4.10;;
63693;SDS011;49839;51.798;10.954;2023-06-10T06:01:29;7.05;;;3.88;;
63693;SDS011;49839;51.798;10.954;2023-06-10T06:03:57;7.82;;;3.38;;
63693;SDS011;49839;51.798;10.954;2023-06-10T06:06:24;7.72;;;3.92;;
63693;SDS011;49839;51.798;10.954;2023-06-10T06:08:52;8.75;;;4.07;;
63693;SDS011;49839;51.798;10.954;2023-06-10T06:11:20;9.45;;;3.78;;
63693;SDS011;49839;51.798;10.954;2023-06-10T06:13:49;10.05;;;4.07;;
63693;SDS011;49839;51.798;10.954;2023-06-10T06:16:19;9.32;;;4.00;;
63693;SDS011;49839;51.798;10.954;2023-06-10T06:18:46;8.93;;;3.92;;
63693;SDS011;49839;51.798;10.954;2023-06-10T06:21:14;9.18;;;3.85;;
63693;SDS011;49839;51.798;10.954;2023-06-10T06:23:42;7.88;;;3.83;;
63693;SDS011;49839;51.798;10.954;2023-06-10T06:26:10;11.02;;;3.85;;
63693;SDS011;49839;51.798;10.954;2023-06-10T06:28:37;9.48;;;3.67;;
63693;SDS011;49839;51.798;10.954;2023-06-10T06:31:07;13.18;;;4.15;;
63693;SDS011;49839;51.798;10.954;2023-06-10T06:33:34;7.78;;;3.92;;
63693;SDS011;49839;51.798;10.954;2023-06-10T06:36:02;10.23;;;4.05;;
63693;SDS011;49839;51.798;10.954;2023-06-10T06:38:30;8.30;;;3.80;;
63693;SDS011;49839;51.798;10.954;2023-06-10T06:40:58;11.18;;;4.30;;
63693;SDS011;49839;51.798;10.954;2023-06-10T06:43:29;8.55;;;4.00;;
63693;SDS011;49839;51.798;10.954;2023-06-10T06:45:57;9.75;;;4.30;;
63693;SDS011;49839;51.798;10.954;2023-06-10T06:48:26;11.43;;;4.40;;
63693;SDS011;49839;51.798;10.954;2023-06-10T06:50:54;9.98;;;4.13;;
63693;SDS011;49839;51.798;10.954;2023-06-10T06:53:24;9.45;;;4.72;;
63693;SDS011;49839;51.798;10.954;2023-06-10T06:55:54;9.55;;;4.50;;
63693;SDS011;49839;51.798;10.954;2023-06-10T06:58:21;9.23;;;4.40;;
63693;SDS011;49839;51.798;10.954;2023-06-10T07:00:49;8.02;;;4.38;;
63693;SDS011;49839;51.798;10.954;2023-06-10T07:03:17;7.65;;;4.32;;
63693;SDS011;49839;51.798;10.954;2023-06-10T07:05:46;8.05;;;4.50;;
63693;SDS011;49839;51.798;10.954;2023-06-10T07:08:15;9.40;;;4.40;;
63693;SDS011;49839;51.798;10.954;2023-06-10T07:10:43;11.00;;;4.50;;
63693;SDS011;49839;51.798;10.954;2023-06-10T07:13:11;8.05;;;4.15;;
63693;SDS011;49839;51.798;10.954;2023-06-10T07:15:40;9.70;;;3.90;;
63693;SDS011;49839;51.798;10.954;2023-06-10T07:18:08;9.25;;;4.05;;
63693;SDS011;49839;51.798;10.954;2023-06-10T07:20:36;9.88;;;4.65;;
63693;SDS011;49839;51.798;10.954;2023-06-10T07:23:05;12.35;;;4.55;;
63693;SDS011;49839;51.798;10.954;2023-06-10T07:25:33;11.30;;;4.45;;
63693;SDS011;49839;51.798;10.954;2023-06-10T07:28:00;11.80;;;4.30;;
63693;SDS011;49839;51.798;10.954;2023-06-10T07:30:28;10.13;;;4.57;;
63693;SDS011;49839;51.798;10.954;2023-06-10T07:32:56;8.65;;;4.72;;
63693;SDS011;49839;51.798;10.954;2023-06-10T07:35:24;9.18;;;4.40;;
63693;SDS011;49839;51.798;10.954;2023-06-10T07:37:51;7.82;;;4.35;;
63693;SDS011;49839;51.798;10.954;2023-06-10T07:40:20;7.97;;;4.60;;
63693;SDS011;49839;51.798;10.954;2023-06-10T07:42:48;10.38;;;4.45;;
63693;SDS011;49839;51.798;10.954;2023-06-10T07:45:16;7.95;;;4.20;;
63693;SDS011;49839;51.798;10.954;2023-06-10T07:47:52;8.18;;;4.47;;
63693;SDS011;49839;51.798;10.954;2023-06-10T07:50:21;11.40;;;4.60;;
63693;SDS011;49839;51.798;10.954;2023-06-10T07:52:49;9.57;;;4.60;;
63693;SDS011;49839;51.798;10.954;2023-06-10T07:55:16;9.40;;;4.70;;
63693;SDS011;49839;51.798;10.954;2023-06-10T07:57:45;8.52;;;4.25;;
63693;SDS011;49839;51.798;10.954;2023-06-10T08:00:13;9.60;;;4.88;;
63693;SDS011;49839;51.798;10.954;2023-06-10T08:02:41;8.25;;;4.65;;
63693;SDS011;49839;51.798;10.954;2023-06-10T08:05:09;10.15;;;4.55;;
63693;SDS011;49839;51.798;10.954;2023-06-10T08:07:37;8.80;;;4.50;;
63693;SDS011;49839;51.798;10.954;2023-06-10T08:10:07;8.32;;;5.18;;
63693;SDS011;49839;51.798;10.954;2023-06-10T08:12:35;10.20;;;5.25;;
63693;SDS011;49839;51.798;10.954;2023-06-10T08:15:05;13.93;;;5.20;;
63693;SDS011;49839;51.798;10.954;2023-06-10T08:17:34;8.77;;;4.53;;
63693;SDS011;49839;51.798;10.954;2023-06-10T08:20:01;7.80;;;4.38;;
63693;SDS011;49839;51.798;10.954;2023-06-10T08:22:29;8.38;;;4.40;;
63693;SDS011;49839;51.798;10.954;2023-06-10T08:24:57;10.80;;;5.43;;
63693;SDS011;49839;51.798;10.954;2023-06-10T08:27:25;9.45;;;4.32;;
63693;SDS011;49839;51.798;10.954;2023-06-10T08:29:52;9.70;;;4.93;;
63693;SDS011;49839;51.798;10.954;2023-06-10T08:32:21;12.05;;;5.10;;
63693;SDS011;49839;51.798;10.954;2023-06-10T08:34:49;13.95;;;5.20;;
63693;SDS011;49839;51.798;10.954;2023-06-10T08:37:17;12.80;;;5.00;;
63693;SDS011;49839;51.798;10.954;2023-06-10T08:39:45;7.97;;;4.97;;
63693;SDS011;49839;51.798;10.954;2023-06-10T08:42:14;10.05;;;4.78;;
63693;SDS011;49839;51.798;10.954;2023-06-10T08:44:51;7.53;;;4.15;;
63693;SDS011;49839;51.798;10.954;2023-06-10T08:47:23;9.00;;;5.05;;
63693;SDS011;49839;51.798;10.954;2023-06-10T08:49:53;10.05;;;4.75;;
63693;SDS011;49839;51.798;10.954;2023-06-10T08:52:23;8.55;;;5.05;;
63693;SDS011;49839;51.798;10.954;2023-06-10T08:54:54;11.90;;;4.57;;
63693;SDS011;49839;51.798;10.954;2023-06-10T08:57:24;11.48;;;5.03;;
63693;SDS011;49839;51.798;10.954;2023-06-10T08:59:54;8.32;;;4.88;;
63693;SDS011;49839;51.798;10.954;2023-06-10T09:02:24;11.10;;;4.57;;
63693;SDS011;49839;51.798;10.954;2023-06-10T09:04:52;9.85;;;5.13;;
63693;SDS011;49839;51.798;10.954;2023-06-10T09:07:23;8.18;;;4.80;;
63693;SDS011;49839;51.798;10.954;2023-06-10T09:09:51;9.52;;;4.95;;
63693;SDS011;49839;51.798;10.954;2023-06-10T09:12:20;9.10;;;4.40;;
63693;SDS011;49839;51.798;10.954;2023-06-10T09:14:48;9.97;;;5.00;;
63693;SDS011;49839;51.798;10.954;2023-06-10T09:17:16;9.30;;;4.80;;
63693;SDS011;49839;51.798;10.954;2023-06-10T09:19:45;7.57;;;4.63;;
63693;SDS011;49839;51.798;10.954;2023-06-10T09:22:14;10.32;;;5.03;;
63693;SDS011;49839;51.798;10.954;2023-06-10T09:24:42;11.50;;;4.77;;
63693;SDS011;49839;51.798;10.954;2023-06-10T09:27:10;11.07;;;4.88;;
63693;SDS011;49839;51.798;10.954;2023-06-10T09:29:45;8.20;;;5.17;;
63693;SDS011;49839;51.798;10.954;2023-06-10T09:32:14;11.45;;;5.13;;
63693;SDS011;49839;51.798;10.954;2023-06-10T09:34:46;8.70;;;4.60;;
63693;SDS011;49839;51.798;10.954;2023-06-10T09:37:19;8.38;;;4.88;;
63693;SDS011;49839;51.798;10.954;2023-06-10T09:40:00;10.07;;;5.20;;
63693;SDS011;49839;51.798;10.954;2023-06-10T09:42:30;8.40;;;5.05;;
63693;SDS011;49839;51.798;10.954;2023-06-10T09:44:59;9.45;;;4.95;;
63693;SDS011;49839;51.798;10.954;2023-06-10T09:47:27;9.45;;;5.07;;
63693;SDS011;49839;51.798;10.954;2023-06-10T09:49:57;10.57;;;4.70;;
63693;SDS011;49839;51.798;10.954;2023-06-10T09:52:24;8.13;;;4.88;;
63693;SDS011;49839;51.798;10.954;2023-06-10T09:54:54;10.02;;;4.93;;
63693;SDS011;49839;51.798;10.954;2023-06-10T09:57:26;10.20;;;5.15;;
63693;SDS011;49839;51.798;10.954;2023-06-10T09:59:59;9.43;;;5.43;;
63693;SDS011;49839;51.798;10.954;2023-06-10T10:02:32;8.75;;;5.22;;
63693;SDS011;49839;51.798;10.954;2023-06-10T10:05:03;8.97;;;4.50;;
63693;SDS011;49839;51.798;10.954;2023-06-10T10:07:31;13.35;;;4.70;;
63693;SDS011;49839;51.798;10.954;2023-06-10T10:09:59;8.35;;;4.85;;
63693;SDS011;49839;51.798;10.954;2023-06-10T10:12:27;8.77;;;5.30;;
63693;SDS011;49839;51.798;10.954;2023-06-10T10:14:55;8.35;;;5.03;;
63693;SDS011;49839;51.798;10.954;2023-06-10T10:17:23;10.20;;;4.80;;
63693;SDS011;49839;51.798;10.954;2023-06-10T10:19:53;10.77;;;5.45;;
63693;SDS011;49839;51.798;10.954;2023-06-10T10:22:29;6.85;;;4.47;;
63693;SDS011;49839;51.798;10.954;2023-06-10T10:25:01;10.95;;;5.05;;
63693;SDS011;49839;51.798;10.954;2023-06-10T10:27:36;9.48;;;5.45;;
63693;SDS011;49839;51.798;10.954;2023-06-10T10:30:11;9.07;;;5.10;;
63693;SDS011;49839;51.798;10.954;2023-06-10T10:32:47;8.40;;;4.95;;
63693;SDS011;49839;51.798;10.954;2023-06-10T10:35:21;7.85;;;5.10;;
63693;SDS011;49839;51.798;10.954;2023-06-10T10:37:52;7.88;;;4.60;;
63693;SDS011;49839;51.798;10.954;2023-06-10T10:40:21;10.15;;;4.95;;
63693;SDS011;49839;51.798;10.954;2023-06-10T10:42:50;9.40;;;5.18;;
63693;SDS011;49839;51.798;10.954;2023-06-10T10:45:18;8.68;;;4.85;;
63693;SDS011;49839;51.798;10.954;2023-06-10T10:47:46;11.30;;;4.78;;
63693;SDS011;49839;51.798;10.954;2023-06-10T10:50:27;8.35;;;4.65;;
63693;SDS011;49839;51.798;10.954;2023-06-10T10:53:00;7.82;;;4.28;;
63693;SDS011;49839;51.798;10.954;2023-06-10T10:55:29;7.78;;;4.80;;
63693;SDS011;49839;51.798;10.954;2023-06-10T10:57:58;11.48;;;5.25;;
63693;SDS011;49839;51.798;10.954;2023-06-10T11:00:27;11.18;;;4.63;;
63693;SDS011;49839;51.798;10.954;2023-06-10T11:02:57;11.45;;;5.40;;
63693;SDS011;49839;51.798;10.954;2023-06-10T11:05:32;10.18;;;5.00;;
63693;SDS011;49839;51.798;10.954;2023-06-10T11:08:05;12.23;;;4.32;;
63693;SDS011;49839;51.798;10.954;2023-06-10T11:10:36;9.75;;;4.68;;
63693;SDS011;49839;51.798;10.954;2023-06-10T11:13:07;10.75;;;4.72;;
63693;SDS011;49839;51.798;10.954;2023-06-10T11:15:42;8.65;;;4.82;;
63693;SDS011;49839;51.798;10.954;2023-06-10T11:18:13;7.32;;;4.22;;
63693;SDS011;49839;51.798;10.954;2023-06-10T11:20:45;9.50;;;4.65;;
63693;SDS011;49839;51.798;10.954;2023-06-10T11:23:34;9.32;;;5.20;;
63693;SDS011;49839;51.798;10.954;2023-06-10T11:26:13;11.32;;;5.00;;
63693;SDS011;49839;51.798;10.954;2023-06-10T11:28:42;10.57;;;5.43;;
63693;SDS011;49839;51.798;10.954;2023-06-10T11:31:30;8.52;;;5.13;;
63693;SDS011;49839;51.798;10.954;2023-06-10T11:34:00;11.43;;;5.07;;
63693;SDS011;49839;51.798;10.954;2023-06-10T11:36:29;8.77;;;4.32;;
63693;SDS011;49839;51.798;10.954;2023-06-10T11:38:59;9.85;;;4.50;;
63693;SDS011;49839;51.798;10.954;2023-06-10T11:41:29;10.73;;;4.35;;
63693;SDS011;49839;51.798;10.954;2023-06-10T11:44:00;11.43;;;4.53;;
63693;SDS011;49839;51.798;10.954;2023-06-10T11:46:29;8.70;;;4.20;;
63693;SDS011;49839;51.798;10.954;2023-06-10T11:48:57;10.00;;;5.07;;
63693;SDS011;49839;51.798;10.954;2023-06-10T11:51:26;8.00;;;4.53;;
63693;SDS011;49839;51.798;10.954;2023-06-10T11:53:55;9.20;;;4.68;;
63693;SDS011;49839;51.798;10.954;2023-06-10T11:56:25;8.13;;;4.53;;
63693;SDS011;49839;51.798;10.954;2023-06-10T11:58:55;10.82;;;4.18;;
63693;SDS011;49839;51.798;10.954;2023-06-10T12:01:24;9.02;;;4.57;;
63693;SDS011;49839;51.798;10.954;2023-06-10T12:03:58;11.68;;;4.55;;
63693;SDS011;49839;51.798;10.954;2023-06-10T12:06:27;8.27;;;4.57;;
63693;SDS011;49839;51.798;10.954;2023-06-10T12:09:04;9.77;;;4.38;;
63693;SDS011;49839;51.798;10.954;2023-06-10T12:11:50;8.68;;;4.57;;
63693;SDS011;49839;51.798;10.954;2023-06-10T12:17:20;9.27;;;4.43;;
63693;SDS011;49839;51.798;10.954;2023-06-10T12:19:49;10.45;;;4.43;;
63693;SDS011;49839;51.798;10.954;2023-06-10T12:22:18;7.97;;;4.38;;
63693;SDS011;49839;51.798;10.954;2023-06-10T12:24:57;6.97;;;4.22;;
63693;SDS011;49839;51.798;10.954;2023-06-10T12:27:30;8.70;;;4.15;;
63693;SDS011;49839;51.798;10.954;2023-06-10T12:29:58;9.32;;;4.28;;
63693;SDS011;49839;51.798;10.954;2023-06-10T12:32:36;7.53;;;3.90;;
63693;SDS011;49839;51.798;10.954;2023-06-10T12:35:06;8.68;;;4.22;;
63693;SDS011;49839;51.798;10.954;2023-06-10T12:37:34;9.10;;;4.05;;
63693;SDS011;49839;51.798;10.954;2023-06-10T12:40:07;6.72;;;3.60;;
63693;SDS011;49839;51.798;10.954;2023-06-10T12:42:37;9.95;;;4.40;;
63693;SDS011;49839;51.798;10.954;2023-06-10T12:45:06;7.93;;;3.90;;
63693;SDS011;49839;51.798;10.954;2023-06-10T12:47:37;8.55;;;4.40;;
63693;SDS011;49839;51.798;10.954;2023-06-10T12:50:08;8.52;;;3.80;;
63693;SDS011;49839;51.798;10.954;2023-06-10T12:52:38;9.98;;;4.15;;
63693;SDS011;49839;51.798;10.954;2023-06-10T12:55:07;8.88;;;3.83;;
63693;SDS011;49839;51.798;10.954;2023-06-10T12:57:37;6.82;;;3.80;;
63693;SDS011;49839;51.798;10.954;2023-06-10T13:00:05;7.20;;;3.90;;
63693;SDS011;49839;51.798;10.954;2023-06-10T13:02:35;13.55;;;4.03;;
63693;SDS011;49839;51.798;10.954;2023-06-10T13:05:03;9.27;;;3.80;;
63693;SDS011;49839;51.798;10.954;2023-06-10T13:07:32;7.03;;;3.78;;
63693;SDS011;49839;51.798;10.954;2023-06-10T13:09:59;7.85;;;4.13;;
63693;SDS011;49839;51.798;10.954;2023-06-10T13:12:28;6.73;;;4.30;;
63693;SDS011;49839;51.798;10.954;2023-06-10T13:15:13;7.22;;;4.07;;
63693;SDS011;49839;51.798;10.954;2023-06-10T13:17:42;8.30;;;3.75;;
63693;SDS011;49839;51.798;10.954;2023-06-10T13:20:10;6.90;;;3.90;;
63693;SDS011;49839;51.798;10.954;2023-06-10T13:22:38;8.47;;;4.17;;
63693;SDS011;49839;51.798;10.954;2023-06-10T13:25:06;6.45;;;3.97;;
63693;SDS011;49839;51.798;10.954;2023-06-10T13:27:34;8.68;;;4.00;;
63693;SDS011;49839;51.798;10.954;2023-06-10T13:30:04;8.60;;;4.07;;
63693;SDS011;49839;51.798;10.954;2023-06-10T13:32:34;7.55;;;4.07;;
63693;SDS011;49839;51.798;10.954;2023-06-10T13:35:02;9.05;;;3.90;;
63693;SDS011;49839;51.798;10.954;2023-06-10T13:37:30;6.55;;;3.83;;
63693;SDS011;49839;51.798;10.954;2023-06-10T13:39:59;7.70;;;3.80;;
63693;SDS011;49839;51.798;10.954;2023-06-10T13:42:27;10.80;;;3.92;;
63693;SDS011;49839;51.798;10.954;2023-06-10T13:44:55;6.18;;;3.63;;
63693;SDS011;49839;51.798;10.954;2023-06-10T13:47:23;8.67;;;3.70;;
63693;SDS011;49839;51.798;10.954;2023-06-10T13:49:53;6.43;;;3.70;;
63693;SDS011;49839;51.798;10.954;2023-06-10T13:52:23;9.82;;;4.28;;
63693;SDS011;49839;51.798;10.954;2023-06-10T13:54:51;7.65;;;3.80;;
63693;SDS011;49839;51.798;10.954;2023-06-10T13:57:18;6.05;;;3.38;;
63693;SDS011;49839;51.798;10.954;2023-06-10T13:59:46;11.90;;;4.10;;
63693;SDS011;49839;51.798;10.954;2023-06-10T14:02:14;9.63;;;4.07;;
63693;SDS011;49839;51.798;10.954;2023-06-10T14:04:43;12.20;;;3.78;;
63693;SDS011;49839;51.798;10.954;2023-06-10T14:07:12;7.50;;;3.88;;
63693;SDS011;49839;51.798;10.954;2023-06-10T14:09:39;8.05;;;4.30;;
63693;SDS011;49839;51.798;10.954;2023-06-10T14:12:07;7.93;;;4.10;;
63693;SDS011;49839;51.798;10.954;2023-06-10T14:14:35;6.43;;;3.88;;
63693;SDS011;49839;51.798;10.954;2023-06-10T14:17:03;7.38;;;4.30;;
63693;SDS011;49839;51.798;10.954;2023-06-10T14:19:32;9.25;;;3.33;;
63693;SDS011;49839;51.798;10.954;2023-06-10T14:21:59;7.25;;;3.30;;
63693;SDS011;49839;51.798;10.954;2023-06-10T14:24:28;10.88;;;3.40;;
63693;SDS011;49839;51.798;10.954;2023-06-10T14:26:56;7.35;;;4.00;;
63693;SDS011;49839;51.798;10.954;2023-06-10T14:29:24;5.90;;;3.47;;
63693;SDS011;49839;51.798;10.954;2023-06-10T14:31:55;7.40;;;3.53;;
63693;SDS011;49839;51.798;10.954;2023-06-10T14:34:22;9.63;;;3.60;;
63693;SDS011;49839;51.798;10.954;2023-06-10T14:36:54;6.65;;;3.20;;
63693;SDS011;49839;51.798;10.954;2023-06-10T14:39:22;5.95;;;3.35;;
63693;SDS011;49839;51.798;10.954;2023-06-10T14:41:52;5.40;;;2.97;;
63693;SDS011;49839;51.798;10.954;2023-06-10T14:44:24;7.20;;;3.65;;
63693;SDS011;49839;51.798;10.954;2023-06-10T14:46:51;6.32;;;3.13;;
63693;SDS011;49839;51.798;10.954;2023-06-10T14:49:19;5.15;;;2.92;;
63693;SDS011;49839;51.798;10.954;2023-06-10T14:51:47;6.32;;;3.10;;